Temp: 17.2°C   Baro: 1010.2mb
  Wind: 2.9mph   Dir: NW (306°)
  Rain: 0.8mm (0.0mm/hr)
  Solar: 141W/m2  Hum: 92%
 
Bath Spa Weather Station Historical Data
Daily Summary for June 6, 2019 Units:  Both    English   Metric
Daily Weekly Monthly Yearly Custom
  High: Low: Average:
Temperature: 74.7 °F /  23.7 °C 51.8 °F /  11 °C 63.8 °F /  17.7 °C
Dew Point: 61.2 °F /  16.2 °C 48.7 °F /  9.3 °C 55.7 °F /  13.2 °C
Humidity: 90% 58% 76%
Wind Speed: 11mph /  17.7km/h - 2mph /  3.2km/h
Wind Gust: 13mph /  20.9km/h - -
Wind- - WSW
Pressure: 30.00 in /  1015.8 hPa 29.91 in /  1012.8 hPa -
Precipitation: 0.00 in /  0 mm    
Historical Graphs
 
 
Tabular Data for June 6, 2019
Time Temperature Dew Point Pressure Wind Wind Speed Wind Gust Humidity Rainfall Rate (Hourly) solar
00:04 59.2 °F /  15.1 °C 52.3 °F /  11.3 °C 30.00in /  1015.8hPa West 4mph /  6.4km/h 4mph /  6.4km/h 78% 0.00in /  0mm 0 W/m2
00:09 59 °F /  15 °C 52.2 °F /  11.2 °C 29.99in /  1015.5hPa Calm   2mph /  3.2km/h 78% 0.00in /  0mm 0 W/m2
00:14 59.2 °F /  15.1 °C 52.7 °F /  11.5 °C 29.99in /  1015.5hPa Calm   1mph /  1.6km/h 79% 0.00in /  0mm 0 W/m2
00:19 59.2 °F /  15.1 °C 52.7 °F /  11.5 °C 30.00in /  1015.8hPa Calm     79% 0.00in /  0mm 0 W/m2
00:24 59.4 °F /  15.2 °C 52.9 °F /  11.6 °C 30.00in /  1015.8hPa Calm     79% 0.00in /  0mm 0 W/m2
00:29 59 °F /  15 °C 52.5 °F /  11.4 °C 30.00in /  1015.8hPa Calm     79% 0.00in /  0mm 0 W/m2
00:34 58.8 °F /  14.9 °C 52.3 °F /  11.3 °C 30.00in /  1015.8hPa Calm     79% 0.00in /  0mm 0 W/m2
00:39 58.8 °F /  14.9 °C 52.3 °F /  11.3 °C 30.00in /  1015.8hPa Calm     79% 0.00in /  0mm 0 W/m2
00:44 58.6 °F /  14.8 °C 52.2 °F /  11.2 °C 29.99in /  1015.5hPa Calm     79% 0.00in /  0mm 0 W/m2
00:49 58.6 °F /  14.8 °C 52.5 °F /  11.4 °C 29.99in /  1015.5hPa Calm     80% 0.00in /  0mm 0 W/m2
00:54 58.6 °F /  14.8 °C 52.5 °F /  11.4 °C 29.99in /  1015.5hPa Calm     80% 0.00in /  0mm 0 W/m2
00:59 58.5 °F /  14.7 °C 52.3 °F /  11.3 °C 29.99in /  1015.5hPa Calm     80% 0.00in /  0mm 0 W/m2
01:04 58.5 °F /  14.7 °C 52.3 °F /  11.3 °C 29.99in /  1015.5hPa Calm     80% 0.00in /  0mm 0 W/m2
01:09 58.3 °F /  14.6 °C 52.2 °F /  11.2 °C 29.98in /  1015.1hPa Calm     80% 0.00in /  0mm 0 W/m2
01:14 58.1 °F /  14.5 °C 52.3 °F /  11.3 °C 29.98in /  1015.1hPa Calm     81% 0.00in /  0mm 0 W/m2
01:19 57.7 °F /  14.3 °C 52 °F /  11.1 °C 29.98in /  1015.1hPa Calm     81% 0.00in /  0mm 0 W/m2
01:24 57.6 °F /  14.2 °C 51.8 °F /  11 °C 29.98in /  1015.1hPa Calm     81% 0.00in /  0mm 0 W/m2
01:29 57.4 °F /  14.1 °C 52 °F /  11.1 °C 29.98in /  1015.1hPa Calm     82% 0.00in /  0mm 0 W/m2
01:34 57.4 °F /  14.1 °C 52 °F /  11.1 °C 29.98in /  1015.1hPa Calm     82% 0.00in /  0mm 0 W/m2
01:39 57.4 °F /  14.1 °C 52 °F /  11.1 °C 29.98in /  1015.1hPa Calm     82% 0.00in /  0mm 0 W/m2
01:44 57.2 °F /  14 °C 51.8 °F /  11 °C 29.98in /  1015.1hPa Calm     82% 0.00in /  0mm 0 W/m2
01:49 57.2 °F /  14 °C 52.2 °F /  11.2 °C 29.98in /  1015.1hPa Calm     83% 0.00in /  0mm 0 W/m2
01:54 57 °F /  13.9 °C 52 °F /  11.1 °C 29.98in /  1015.1hPa Calm     83% 0.00in /  0mm 0 W/m2
01:59 56.8 °F /  13.8 °C 51.8 °F /  11 °C 29.98in /  1015.1hPa Calm     83% 0.00in /  0mm 0 W/m2
02:04 56.8 °F /  13.8 °C 51.8 °F /  11 °C 29.98in /  1015.1hPa Calm     83% 0.00in /  0mm 0 W/m2
02:09 56.8 °F /  13.8 °C 51.8 °F /  11 °C 29.98in /  1015.1hPa Calm     83% 0.00in /  0mm 0 W/m2
02:14 56.8 °F /  13.8 °C 52 °F /  11.1 °C 29.98in /  1015.1hPa Calm     84% 0.00in /  0mm 0 W/m2
02:19 56.7 °F /  13.7 °C 51.8 °F /  11 °C 29.98in /  1015.1hPa Calm     84% 0.00in /  0mm 0 W/m2
02:24 56.7 °F /  13.7 °C 51.8 °F /  11 °C 29.98in /  1015.1hPa Calm     84% 0.00in /  0mm 0 W/m2
02:29 56.5 °F /  13.6 °C 51.6 °F /  10.9 °C 29.98in /  1015.1hPa Calm     84% 0.00in /  0mm 0 W/m2
02:34 56.1 °F /  13.4 °C 51.4 °F /  10.8 °C 29.97in /  1014.8hPa Calm     84% 0.00in /  0mm 0 W/m2
02:39 55.9 °F /  13.3 °C 51.3 °F /  10.7 °C 29.97in /  1014.8hPa Calm     84% 0.00in /  0mm 0 W/m2
02:44 55.8 °F /  13.2 °C 51.3 °F /  10.7 °C 29.97in /  1014.8hPa Calm     85% 0.00in /  0mm 0 W/m2
02:49 55.6 °F /  13.1 °C 51.1 °F /  10.6 °C 29.97in /  1014.8hPa Calm     85% 0.00in /  0mm 0 W/m2
02:54 55.4 °F /  13 °C 50.9 °F /  10.5 °C 29.97in /  1014.8hPa Calm     85% 0.00in /  0mm 0 W/m2
02:59 55.2 °F /  12.9 °C 50.7 °F /  10.4 °C 29.97in /  1014.8hPa Calm     85% 0.00in /  0mm 0 W/m2
03:04 55.2 °F /  12.9 °C 50.7 °F /  10.4 °C 29.96in /  1014.4hPa Calm     85% 0.00in /  0mm 0 W/m2
03:09 55.2 °F /  12.9 °C 51.1 °F /  10.6 °C 29.96in /  1014.4hPa Calm     86% 0.00in /  0mm 0 W/m2
03:14 54.9 °F /  12.7 °C 50.7 °F /  10.4 °C 29.96in /  1014.4hPa Calm     86% 0.00in /  0mm 0 W/m2
03:19 54.3 °F /  12.4 °C 50.2 °F /  10.1 °C 29.96in /  1014.4hPa Calm     86% 0.00in /  0mm 0 W/m2
03:24 54.3 °F /  12.4 °C 50.2 °F /  10.1 °C 29.96in /  1014.4hPa Calm     86% 0.00in /  0mm 0 W/m2
03:29 54.1 °F /  12.3 °C 50 °F /  10 °C 29.96in /  1014.4hPa Calm     86% 0.00in /  0mm 0 W/m2
03:34 54.1 °F /  12.3 °C 50 °F /  10 °C 29.96in /  1014.4hPa Calm     86% 0.00in /  0mm 0 W/m2
03:39 54.1 °F /  12.3 °C 50 °F /  10 °C 29.96in /  1014.4hPa Calm     86% 0.00in /  0mm 0 W/m2
03:44 54 °F /  12.2 °C 49.8 °F /  9.9 °C 29.96in /  1014.4hPa Calm     86% 0.00in /  0mm 0 W/m2
03:49 53.8 °F /  12.1 °C 50 °F /  10 °C 29.96in /  1014.4hPa Calm     87% 0.00in /  0mm 0 W/m2
03:54 54 °F /  12.2 °C 50.2 °F /  10.1 °C 29.96in /  1014.4hPa Calm     87% 0.00in /  0mm 0 W/m2
03:59 53.6 °F /  12 °C 49.8 °F /  9.9 °C 29.95in /  1014.1hPa Calm     87% 0.00in /  0mm 0 W/m2
04:04 53.4 °F /  11.9 °C 49.6 °F /  9.8 °C 29.95in /  1014.1hPa Calm     87% 0.00in /  0mm 0 W/m2
04:09 53.2 °F /  11.8 °C 49.5 °F /  9.7 °C 29.95in /  1014.1hPa Calm     87% 0.00in /  0mm 0 W/m2
04:14 53.2 °F /  11.8 °C 49.5 °F /  9.7 °C 29.96in /  1014.4hPa Calm     87% 0.00in /  0mm 0 W/m2
04:19 53.1 °F /  11.7 °C 49.3 °F /  9.6 °C 29.96in /  1014.4hPa Calm     87% 0.00in /  0mm 0 W/m2
04:24 52.9 °F /  11.6 °C 49.1 °F /  9.5 °C 29.96in /  1014.4hPa Calm     87% 0.00in /  0mm 0 W/m2
04:29 52.7 °F /  11.5 °C 48.9 °F /  9.4 °C 29.96in /  1014.4hPa Calm     87% 0.00in /  0mm 0 W/m2
04:34 52.7 °F /  11.5 °C 49.3 °F /  9.6 °C 29.95in /  1014.1hPa Calm     88% 0.00in /  0mm 0 W/m2
04:39 52.7 °F /  11.5 °C 49.3 °F /  9.6 °C 29.96in /  1014.4hPa Calm     88% 0.00in /  0mm 0 W/m2
04:44 52.7 °F /  11.5 °C 49.3 °F /  9.6 °C 29.95in /  1014.1hPa Calm     88% 0.00in /  0mm 0 W/m2
04:49 52.7 °F /  11.5 °C 49.3 °F /  9.6 °C 29.96in /  1014.4hPa Calm     88% 0.00in /  0mm 0 W/m2
04:54 52.3 °F /  11.3 °C 48.9 °F /  9.4 °C 29.95in /  1014.1hPa Calm     88% 0.00in /  0mm 0 W/m2
04:59 52.3 °F /  11.3 °C 48.9 °F /  9.4 °C 29.95in /  1014.1hPa Calm     88% 0.00in /  0mm 0 W/m2
05:04 52.5 °F /  11.4 °C 49.1 °F /  9.5 °C 29.95in /  1014.1hPa Calm     88% 0.00in /  0mm 5 W/m2
05:09 52.5 °F /  11.4 °C 49.1 °F /  9.5 °C 29.95in /  1014.1hPa Calm     88% 0.00in /  0mm 5 W/m2
05:14 52.3 °F /  11.3 °C 48.9 °F /  9.4 °C 29.95in /  1014.1hPa Calm     88% 0.00in /  0mm 7 W/m2
05:19 52.2 °F /  11.2 °C 48.7 °F /  9.3 °C 29.95in /  1014.1hPa Calm     88% 0.00in /  0mm 11 W/m2
05:24 52.2 °F /  11.2 °C 48.7 °F /  9.3 °C 29.95in /  1014.1hPa Calm     88% 0.00in /  0mm 12 W/m2
05:29 52 °F /  11.1 °C 48.9 °F /  9.4 °C 29.95in /  1014.1hPa Calm     89% 0.00in /  0mm 14 W/m2
05:34 51.8 °F /  11 °C 48.7 °F /  9.3 °C 29.95in /  1014.1hPa Calm     89% 0.00in /  0mm 14 W/m2
05:39 51.8 °F /  11 °C 48.7 °F /  9.3 °C 29.95in /  1014.1hPa Calm     89% 0.00in /  0mm 16 W/m2
05:44 51.8 °F /  11 °C 48.7 °F /  9.3 °C 29.95in /  1014.1hPa Calm     89% 0.00in /  0mm 18 W/m2
05:49 51.8 °F /  11 °C 48.7 °F /  9.3 °C 29.95in /  1014.1hPa Calm     89% 0.00in /  0mm 19 W/m2
05:54 52.2 °F /  11.2 °C 49.1 °F /  9.5 °C 29.95in /  1014.1hPa Calm     89% 0.00in /  0mm 21 W/m2
05:59 52.3 °F /  11.3 °C 49.3 °F /  9.6 °C 29.95in /  1014.1hPa Calm     89% 0.00in /  0mm 21 W/m2
06:04 52.3 °F /  11.3 °C 49.3 °F /  9.6 °C 29.95in /  1014.1hPa Calm     89% 0.00in /  0mm 23 W/m2
06:09 52.3 °F /  11.3 °C 49.3 °F /  9.6 °C 29.95in /  1014.1hPa Calm     89% 0.00in /  0mm 25 W/m2
06:14 52.3 °F /  11.3 °C 49.3 °F /  9.6 °C 29.95in /  1014.1hPa Calm     89% 0.00in /  0mm 25 W/m2
06:19 52.5 °F /  11.4 °C 49.5 °F /  9.7 °C 29.95in /  1014.1hPa Calm     89% 0.00in /  0mm 26 W/m2
06:24 52.7 °F /  11.5 °C 49.5 °F /  9.7 °C 29.95in /  1014.1hPa Calm     89% 0.00in /  0mm 26 W/m2
06:29 53.1 °F /  11.7 °C 49.8 °F /  9.9 °C 29.94in /  1013.8hPa Calm     89% 0.00in /  0mm 30 W/m2
06:34 53.4 °F /  11.9 °C 50.2 °F /  10.1 °C 29.94in /  1013.8hPa Calm     89% 0.00in /  0mm 35 W/m2
06:39 54 °F /  12.2 °C 51.1 °F /  10.6 °C 29.94in /  1013.8hPa Calm     90% 0.00in /  0mm 44 W/m2
06:44 54.3 °F /  12.4 °C 51.4 °F /  10.8 °C 29.94in /  1013.8hPa Calm     90% 0.00in /  0mm 56 W/m2
06:49 54.5 °F /  12.5 °C 51.3 °F /  10.7 °C 29.94in /  1013.8hPa Calm     89% 0.00in /  0mm 67 W/m2
06:54 54.9 °F /  12.7 °C 51.6 °F /  10.9 °C 29.94in /  1013.8hPa Calm     89% 0.00in /  0mm 79 W/m2
06:59 55.2 °F /  12.9 °C 52 °F /  11.1 °C 29.95in /  1014.1hPa Calm     89% 0.00in /  0mm 93 W/m2
07:04 55.4 °F /  13 °C 52.2 °F /  11.2 °C 29.94in /  1013.8hPa Calm     89% 0.00in /  0mm 111 W/m2
07:09 55.9 °F /  13.3 °C 52.7 °F /  11.5 °C 29.94in /  1013.8hPa Calm     89% 0.00in /  0mm 128 W/m2
07:14 56.1 °F /  13.4 °C 52.9 °F /  11.6 °C 29.94in /  1013.8hPa West 0.9mph /  1.4km/h 2mph /  3.2km/h 89% 0.00in /  0mm 146 W/m2
07:19 56.3 °F /  13.5 °C 53.1 °F /  11.7 °C 29.94in /  1013.8hPa West 3mph /  4.8km/h 3mph /  4.8km/h 89% 0.00in /  0mm 160 W/m2
07:24 56.7 °F /  13.7 °C 53.1 °F /  11.7 °C 29.94in /  1013.8hPa West 2mph /  3.2km/h 4mph /  6.4km/h 88% 0.00in /  0mm 179 W/m2
07:29 57 °F /  13.9 °C 53.4 °F /  11.9 °C 29.94in /  1013.8hPa Calm   3mph /  4.8km/h 88% 0.00in /  0mm 193 W/m2
07:34 57.2 °F /  14 °C 53.6 °F /  12 °C 29.94in /  1013.8hPa West 2mph /  3.2km/h 4mph /  6.4km/h 88% 0.00in /  0mm 209 W/m2
07:39 57.4 °F /  14.1 °C 53.8 °F /  12.1 °C 29.94in /  1013.8hPa West 2.9mph /  4.7km/h 3mph /  4.8km/h 88% 0.00in /  0mm 225 W/m2
07:44 57.7 °F /  14.3 °C 54.1 °F /  12.3 °C 29.94in /  1013.8hPa West 2.9mph /  4.7km/h 4mph /  6.4km/h 88% 0.00in /  0mm 241 W/m2
07:49 57.9 °F /  14.4 °C 54.1 °F /  12.3 °C 29.95in /  1014.1hPa West 2.9mph /  4.7km/h 5mph /  8km/h 87% 0.00in /  0mm 257 W/m2
07:54 58.3 °F /  14.6 °C 54.5 °F /  12.5 °C 29.94in /  1013.8hPa West 0.9mph /  1.4km/h 3mph /  4.8km/h 87% 0.00in /  0mm 272 W/m2
07:59 58.8 °F /  14.9 °C 54.7 °F /  12.6 °C 29.95in /  1014.1hPa West 2.9mph /  4.7km/h 5mph /  8km/h 86% 0.00in /  0mm 290 W/m2
08:04 59 °F /  15 °C 54.9 °F /  12.7 °C 29.94in /  1013.8hPa West 2.9mph /  4.7km/h 5mph /  8km/h 86% 0.00in /  0mm 304 W/m2
08:09 59.4 °F /  15.2 °C 54.9 °F /  12.7 °C 29.94in /  1013.8hPa West 0.9mph /  1.4km/h 5mph /  8km/h 85% 0.00in /  0mm 320 W/m2
08:14 59.9 °F /  15.5 °C 54.7 °F /  12.6 °C 29.94in /  1013.8hPa West 2.9mph /  4.7km/h 6mph /  9.7km/h 83% 0.00in /  0mm 336 W/m2
08:19 60.3 °F /  15.7 °C 54.7 °F /  12.6 °C 29.94in /  1013.8hPa Calm   5mph /  8km/h 82% 0.00in /  0mm 353 W/m2
08:24 60.6 °F /  15.9 °C 54.1 °F /  12.3 °C 29.94in /  1013.8hPa West 2mph /  3.2km/h 5mph /  8km/h 79% 0.00in /  0mm 369 W/m2
08:29 61.3 °F /  16.3 °C 54.1 °F /  12.3 °C 29.94in /  1013.8hPa West 2mph /  3.2km/h 5mph /  8km/h 77% 0.00in /  0mm 385 W/m2
08:34 62.1 °F /  16.7 °C 54.3 °F /  12.4 °C 29.94in /  1013.8hPa West 0.9mph /  1.4km/h 4mph /  6.4km/h 76% 0.00in /  0mm 397 W/m2
08:39 62.2 °F /  16.8 °C 54.1 °F /  12.3 °C 29.94in /  1013.8hPa West 2.9mph /  4.7km/h 6mph /  9.7km/h 75% 0.00in /  0mm 411 W/m2
08:44 63 °F /  17.2 °C 54.5 °F /  12.5 °C 29.94in /  1013.8hPa West 0.9mph /  1.4km/h 3mph /  4.8km/h 74% 0.00in /  0mm 425 W/m2
08:49 63.3 °F /  17.4 °C 54.5 °F /  12.5 °C 29.94in /  1013.8hPa West 2.9mph /  4.7km/h 4mph /  6.4km/h 73% 0.00in /  0mm 439 W/m2
08:54 63.3 °F /  17.4 °C 54.5 °F /  12.5 °C 29.94in /  1013.8hPa West 0.9mph /  1.4km/h 3mph /  4.8km/h 73% 0.00in /  0mm 450 W/m2
08:59 63.7 °F /  17.6 °C 54.5 °F /  12.5 °C 29.94in /  1013.8hPa West 4mph /  6.4km/h 5mph /  8km/h 72% 0.00in /  0mm 462 W/m2
09:04 64 °F /  17.8 °C 54.9 °F /  12.7 °C 29.94in /  1013.8hPa West 2mph /  3.2km/h 4mph /  6.4km/h 72% 0.00in /  0mm 471 W/m2
09:09 64.2 °F /  17.9 °C 54.7 °F /  12.6 °C 29.94in /  1013.8hPa West 0.9mph /  1.4km/h 3mph /  4.8km/h 71% 0.00in /  0mm 487 W/m2
09:14 64 °F /  17.8 °C 54.1 °F /  12.3 °C 29.94in /  1013.8hPa West 0.9mph /  1.4km/h 6mph /  9.7km/h 70% 0.00in /  0mm 512 W/m2
09:19 64.4 °F /  18 °C 54.3 °F /  12.4 °C 29.94in /  1013.8hPa West 4mph /  6.4km/h 5mph /  8km/h 70% 0.00in /  0mm 577 W/m2
09:24 64.9 °F /  18.3 °C 54.5 °F /  12.5 °C 29.94in /  1013.8hPa West 8mph /  12.9km/h 8mph /  12.9km/h 69% 0.00in /  0mm 538 W/m2
09:29 64.4 °F /  18 °C 54.9 °F /  12.7 °C 29.94in /  1013.8hPa West 2.9mph /  4.7km/h 6mph /  9.7km/h 71% 0.00in /  0mm 360 W/m2
09:34 64.8 °F /  18.2 °C 55.2 °F /  12.9 °C 29.94in /  1013.8hPa West 4.9mph /  7.9km/h 5mph /  8km/h 71% 0.00in /  0mm 343 W/m2
09:39 64.8 °F /  18.2 °C 55.2 °F /  12.9 °C 29.94in /  1013.8hPa West 4mph /  6.4km/h 6mph /  9.7km/h 71% 0.00in /  0mm 497 W/m2
09:44 64.8 °F /  18.2 °C 55.2 °F /  12.9 °C 29.94in /  1013.8hPa West 4mph /  6.4km/h 5mph /  8km/h 71% 0.00in /  0mm 211 W/m2
09:49 65.1 °F /  18.4 °C 55.4 °F /  13 °C 29.94in /  1013.8hPa West 4mph /  6.4km/h 7mph /  11.3km/h 71% 0.00in /  0mm 664 W/m2
09:54 65.8 °F /  18.8 °C 55.4 °F /  13 °C 29.93in /  1013.4hPa Calm   6mph /  9.7km/h 69% 0.00in /  0mm 635 W/m2
09:59 66.4 °F /  19.1 °C 55.9 °F /  13.3 °C 29.93in /  1013.4hPa West 4mph /  6.4km/h 7mph /  11.3km/h 69% 0.00in /  0mm 613 W/m2
10:04 66.7 °F /  19.3 °C 56.3 °F /  13.5 °C 29.93in /  1013.4hPa Calm     69% 0.00in /  0mm 645 W/m2
10:09 66.4 °F /  19.1 °C 55.9 °F /  13.3 °C 29.93in /  1013.4hPa NW 4mph /  6.4km/h 8mph /  12.9km/h 69% 0.00in /  0mm 671 W/m2
10:14 66.4 °F /  19.1 °C 56.3 °F /  13.5 °C 29.93in /  1013.4hPa NW 2.9mph /  4.7km/h 5mph /  8km/h 70% 0.00in /  0mm 708 W/m2
10:19 66.9 °F /  19.4 °C 56.5 °F /  13.6 °C 29.93in /  1013.4hPa NW 2mph /  3.2km/h 9mph /  14.5km/h 69% 0.00in /  0mm 712 W/m2
10:24 67.5 °F /  19.7 °C 56.5 °F /  13.6 °C 29.93in /  1013.4hPa Calm   4mph /  6.4km/h 68% 0.00in /  0mm 290 W/m2
10:29 67.5 °F /  19.7 °C 56.5 °F /  13.6 °C 29.93in /  1013.4hPa NW 0.9mph /  1.4km/h 2mph /  3.2km/h 68% 0.00in /  0mm 264 W/m2
10:34 68.2 °F /  20.1 °C 56.8 °F /  13.8 °C 29.93in /  1013.4hPa Calm   2mph /  3.2km/h 67% 0.00in /  0mm 251 W/m2
10:39 68 °F /  20 °C 56.7 °F /  13.7 °C 29.93in /  1013.4hPa NW 2mph /  3.2km/h 3mph /  4.8km/h 67% 0.00in /  0mm 278 W/m2
10:44 68 °F /  20 °C 56.3 °F /  13.5 °C 29.93in /  1013.4hPa Calm   2mph /  3.2km/h 66% 0.00in /  0mm 308 W/m2
10:49 68 °F /  20 °C 56.3 °F /  13.5 °C 29.93in /  1013.4hPa WNW 8.1mph /  13km/h 8mph /  12.9km/h 66% 0.00in /  0mm 679 W/m2
10:54 68.2 °F /  20.1 °C 55.9 °F /  13.3 °C 29.93in /  1013.4hPa Calm   5mph /  8km/h 65% 0.00in /  0mm 330 W/m2
10:59 68 °F /  20 °C 56.3 °F /  13.5 °C 29.93in /  1013.4hPa Calm   2mph /  3.2km/h 66% 0.00in /  0mm 281 W/m2
11:04 68.9 °F /  20.5 °C 56.3 °F /  13.5 °C 29.93in /  1013.4hPa North 0.9mph /  1.4km/h 3mph /  4.8km/h 64% 0.00in /  0mm 320 W/m2
11:09 68.7 °F /  20.4 °C 56.5 °F /  13.6 °C 29.93in /  1013.4hPa North 2mph /  3.2km/h 4mph /  6.4km/h 65% 0.00in /  0mm 951 W/m2
11:14 68.7 °F /  20.4 °C 56.5 °F /  13.6 °C 29.93in /  1013.4hPa NNW 2mph /  3.2km/h 2mph /  3.2km/h 65% 0.00in /  0mm 320 W/m2
11:19 70.3 °F /  21.3 °C 57.2 °F /  14 °C 29.92in /  1013.1hPa Calm   4mph /  6.4km/h 63% 0.00in /  0mm 345 W/m2
11:24 70.7 °F /  21.5 °C 58.3 °F /  14.6 °C 29.92in /  1013.1hPa Calm   1mph /  1.6km/h 65% 0.00in /  0mm 369 W/m2
11:29 71.8 °F /  22.1 °C 59.7 °F /  15.4 °C 29.92in /  1013.1hPa North 3mph /  4.8km/h 3mph /  4.8km/h 66% 0.00in /  0mm 1063 W/m2
11:34 71.1 °F /  21.7 °C 59.2 °F /  15.1 °C 29.92in /  1013.1hPa Calm   7mph /  11.3km/h 66% 0.00in /  0mm 1002 W/m2
11:39 70.7 °F /  21.5 °C 58.8 °F /  14.9 °C 29.92in /  1013.1hPa North 2mph /  3.2km/h 4mph /  6.4km/h 66% 0.00in /  0mm 237 W/m2
11:44 70.2 °F /  21.2 °C 58.6 °F /  14.8 °C 29.92in /  1013.1hPa Calm   1mph /  1.6km/h 67% 0.00in /  0mm 371 W/m2
11:49 69.8 °F /  21 °C 58.3 °F /  14.6 °C 29.92in /  1013.1hPa Calm   2mph /  3.2km/h 67% 0.00in /  0mm 1016 W/m2
11:54 72 °F /  22.2 °C 59.5 °F /  15.3 °C 29.92in /  1013.1hPa North 3mph /  4.8km/h 3mph /  4.8km/h 65% 0.00in /  0mm 1058 W/m2
11:59 71.1 °F /  21.7 °C 58.6 °F /  14.8 °C 29.92in /  1013.1hPa Calm   6mph /  9.7km/h 65% 0.00in /  0mm 633 W/m2
12:04 71.2 °F /  21.8 °C 59.4 °F /  15.2 °C 29.92in /  1013.1hPa NNE 4mph /  6.4km/h 10mph /  16.1km/h 66% 0.00in /  0mm 367 W/m2
12:09 71.6 °F /  22 °C 59.2 °F /  15.1 °C 29.92in /  1013.1hPa NNW 0.9mph /  1.4km/h 5mph /  8km/h 65% 0.00in /  0mm 297 W/m2
12:14 70.3 °F /  21.3 °C 58.5 °F /  14.7 °C 29.92in /  1013.1hPa North 0.9mph /  1.4km/h 4mph /  6.4km/h 66% 0.00in /  0mm 306 W/m2
12:19 70.3 °F /  21.3 °C 58.8 °F /  14.9 °C 29.92in /  1013.1hPa NNW 2.9mph /  4.7km/h 6mph /  9.7km/h 67% 0.00in /  0mm 933 W/m2
12:24 71.2 °F /  21.8 °C 58.5 °F /  14.7 °C 29.92in /  1013.1hPa NNW 2mph /  3.2km/h 2mph /  3.2km/h 64% 0.00in /  0mm 988 W/m2
12:29 71.1 °F /  21.7 °C 57.7 °F /  14.3 °C 29.91in /  1012.8hPa NNW 2.9mph /  4.7km/h 5mph /  8km/h 63% 0.00in /  0mm 1137 W/m2
12:34 71.1 °F /  21.7 °C 59.2 °F /  15.1 °C 29.92in /  1013.1hPa NNW 2mph /  3.2km/h 9mph /  14.5km/h 66% 0.00in /  0mm 316 W/m2
12:39 70.7 °F /  21.5 °C 58.8 °F /  14.9 °C 29.91in /  1012.8hPa North 4.9mph /  7.9km/h 10mph /  16.1km/h 66% 0.00in /  0mm 271 W/m2
12:44 71.2 °F /  21.8 °C 58.8 °F /  14.9 °C 29.92in /  1013.1hPa NNE 0.9mph /  1.4km/h 5mph /  8km/h 65% 0.00in /  0mm 248 W/m2
12:49 70.7 °F /  21.5 °C 58.3 °F /  14.6 °C 29.92in /  1013.1hPa NNW 4mph /  6.4km/h 6mph /  9.7km/h 65% 0.00in /  0mm 385 W/m2
12:54 71.1 °F /  21.7 °C 59.2 °F /  15.1 °C 29.92in /  1013.1hPa NNW 2.9mph /  4.7km/h 3mph /  4.8km/h 66% 0.00in /  0mm 541 W/m2
12:59 71.2 °F /  21.8 °C 58.5 °F /  14.7 °C 29.92in /  1013.1hPa NW 6mph /  9.7km/h 10mph /  16.1km/h 64% 0.00in /  0mm 629 W/m2
13:04 71.4 °F /  21.9 °C 58.6 °F /  14.8 °C 29.91in /  1012.8hPa WNW 2mph /  3.2km/h 6mph /  9.7km/h 64% 0.00in /  0mm 1104 W/m2
13:09 73.6 °F /  23.1 °C 59.4 °F /  15.2 °C 29.91in /  1012.8hPa NW 0.9mph /  1.4km/h 5mph /  8km/h 61% 0.00in /  0mm 918 W/m2
13:14 72.7 °F /  22.6 °C 58.8 °F /  14.9 °C 29.92in /  1013.1hPa North 2.9mph /  4.7km/h 8mph /  12.9km/h 62% 0.00in /  0mm 320 W/m2
13:19 72 °F /  22.2 °C 59.2 °F /  15.1 °C 29.92in /  1013.1hPa NNE 0.9mph /  1.4km/h 7mph /  11.3km/h 64% 0.00in /  0mm 299 W/m2
13:24 71.4 °F /  21.9 °C 58.6 °F /  14.8 °C 29.92in /  1013.1hPa North 4mph /  6.4km/h 6mph /  9.7km/h 64% 0.00in /  0mm 522 W/m2
13:29 71.8 °F /  22.1 °C 59 °F /  15 °C 29.92in /  1013.1hPa NNW 2mph /  3.2km/h 6mph /  9.7km/h 64% 0.00in /  0mm 566 W/m2
13:34 71.6 °F /  22 °C 58.8 °F /  14.9 °C 29.91in /  1012.8hPa WNW 8.1mph /  13km/h 8mph /  12.9km/h 64% 0.00in /  0mm 341 W/m2
13:39 71.6 °F /  22 °C 58.8 °F /  14.9 °C 29.91in /  1012.8hPa WNW 6mph /  9.7km/h 7mph /  11.3km/h 64% 0.00in /  0mm 427 W/m2
13:44 72 °F /  22.2 °C 58.6 °F /  14.8 °C 29.91in /  1012.8hPa West 4.9mph /  7.9km/h 6mph /  9.7km/h 63% 0.00in /  0mm 550 W/m2
13:49 72.1 °F /  22.3 °C 58.5 °F /  14.7 °C 29.91in /  1012.8hPa West 6mph /  9.7km/h 6mph /  9.7km/h 62% 0.00in /  0mm 461 W/m2
13:54 73 °F /  22.8 °C 59.2 °F /  15.1 °C 29.91in /  1012.8hPa West 4.9mph /  7.9km/h 5mph /  8km/h 62% 0.00in /  0mm 1187 W/m2
13:59 74.3 °F /  23.5 °C 59 °F /  15 °C 29.91in /  1012.8hPa NW 10.1mph /  16.3km/h 10mph /  16.1km/h 59% 0.00in /  0mm 582 W/m2
14:04 73.6 °F /  23.1 °C 59.4 °F /  15.2 °C 29.91in /  1012.8hPa NW 6mph /  9.7km/h 6mph /  9.7km/h 61% 0.00in /  0mm 1107 W/m2
14:09 74.1 °F /  23.4 °C 58.5 °F /  14.7 °C 29.91in /  1012.8hPa NW 4.9mph /  7.9km/h 10mph /  16.1km/h 58% 0.00in /  0mm 700 W/m2
14:14 73.2 °F /  22.9 °C 58.1 °F /  14.5 °C 29.91in /  1012.8hPa NW 2.9mph /  4.7km/h 5mph /  8km/h 59% 0.00in /  0mm 366 W/m2
14:19 73 °F /  22.8 °C 58.3 °F /  14.6 °C 29.91in /  1012.8hPa NW 0.9mph /  1.4km/h 6mph /  9.7km/h 60% 0.00in /  0mm 580 W/m2
14:24 73.8 °F /  23.2 °C 58.1 °F /  14.5 °C 29.91in /  1012.8hPa WNW 4.9mph /  7.9km/h 6mph /  9.7km/h 58% 0.00in /  0mm 1021 W/m2
14:29 74.7 °F /  23.7 °C 58.8 °F /  14.9 °C 29.91in /  1012.8hPa WNW 4mph /  6.4km/h 6mph /  9.7km/h 58% 0.00in /  0mm 1014 W/m2
14:34 73.8 °F /  23.2 °C 59.9 °F /  15.5 °C 29.91in /  1012.8hPa North 8.9mph /  14.3km/h 13mph /  20.9km/h 62% 0.00in /  0mm 364 W/m2
14:39 72.3 °F /  22.4 °C 60.3 °F /  15.7 °C 29.91in /  1012.8hPa NW 10.1mph /  16.3km/h 11mph /  17.7km/h 66% 0.00in /  0mm 394 W/m2
14:44 72.9 °F /  22.7 °C 60.8 °F /  16 °C 29.91in /  1012.8hPa NW 4.9mph /  7.9km/h 9mph /  14.5km/h 66% 0.00in /  0mm 1041 W/m2
14:49 72.9 °F /  22.7 °C 60.4 °F /  15.8 °C 29.91in /  1012.8hPa NNW 4.9mph /  7.9km/h 7mph /  11.3km/h 65% 0.00in /  0mm 380 W/m2
14:54 71.8 °F /  22.1 °C 60.3 °F /  15.7 °C 29.91in /  1012.8hPa NNW 0.9mph /  1.4km/h 10mph /  16.1km/h 67% 0.00in /  0mm 478 W/m2
14:59 72.3 °F /  22.4 °C 60.8 °F /  16 °C 29.91in /  1012.8hPa NNW 4mph /  6.4km/h 7mph /  11.3km/h 67% 0.00in /  0mm 631 W/m2
15:04 72 °F /  22.2 °C 60.4 °F /  15.8 °C 29.91in /  1012.8hPa NNW 6mph /  9.7km/h 11mph /  17.7km/h 67% 0.00in /  0mm 831 W/m2
15:09 71.6 °F /  22 °C 60.1 °F /  15.6 °C 29.91in /  1012.8hPa NNW 2.9mph /  4.7km/h 10mph /  16.1km/h 67% 0.00in /  0mm 489 W/m2
15:14 71.2 °F /  21.8 °C 60.1 °F /  15.6 °C 29.91in /  1012.8hPa NNW 4mph /  6.4km/h 10mph /  16.1km/h 68% 0.00in /  0mm 432 W/m2
15:19 71.2 °F /  21.8 °C 60.1 °F /  15.6 °C 29.91in /  1012.8hPa NNW 4.9mph /  7.9km/h 10mph /  16.1km/h 68% 0.00in /  0mm 510 W/m2
15:24 71.4 °F /  21.9 °C 60.3 °F /  15.7 °C 29.91in /  1012.8hPa NNE 6.9mph /  11.1km/h 8mph /  12.9km/h 68% 0.00in /  0mm 418 W/m2
15:29 72 °F /  22.2 °C 60.8 °F /  16 °C 29.91in /  1012.8hPa WNW 11mph /  17.7km/h 11mph /  17.7km/h 68% 0.00in /  0mm 490 W/m2
15:34 72 °F /  22.2 °C 60.8 °F /  16 °C 29.91in /  1012.8hPa NW 6mph /  9.7km/h 11mph /  17.7km/h 68% 0.00in /  0mm 566 W/m2
15:39 71.1 °F /  21.7 °C 60.4 °F /  15.8 °C 29.91in /  1012.8hPa WNW 8.1mph /  13km/h 9mph /  14.5km/h 69% 0.00in /  0mm 346 W/m2
15:44 71.2 °F /  21.8 °C 60.1 °F /  15.6 °C 29.91in /  1012.8hPa West 6.9mph /  11.1km/h 10mph /  16.1km/h 68% 0.00in /  0mm 378 W/m2
15:49 71.2 °F /  21.8 °C 60.1 °F /  15.6 °C 29.91in /  1012.8hPa NW 4mph /  6.4km/h 6mph /  9.7km/h 68% 0.00in /  0mm 338 W/m2
15:54 71.4 °F /  21.9 °C 59.9 °F /  15.5 °C 29.91in /  1012.8hPa NW 6mph /  9.7km/h 8mph /  12.9km/h 67% 0.00in /  0mm 292 W/m2
15:59 71.2 °F /  21.8 °C 60.1 °F /  15.6 °C 29.91in /  1012.8hPa NNW 4mph /  6.4km/h 7mph /  11.3km/h 68% 0.00in /  0mm 285 W/m2
16:04 70.7 °F /  21.5 °C 59.5 °F /  15.3 °C 29.91in /  1012.8hPa West 2.9mph /  4.7km/h 8mph /  12.9km/h 68% 0.00in /  0mm 248 W/m2
16:09 70.7 °F /  21.5 °C 59.5 °F /  15.3 °C 29.91in /  1012.8hPa WNW 8.1mph /  13km/h 10mph /  16.1km/h 68% 0.00in /  0mm 230 W/m2
16:14 70 °F /  21.1 °C 59.4 °F /  15.2 °C 29.91in /  1012.8hPa NNW 4mph /  6.4km/h 9mph /  14.5km/h 69% 0.00in /  0mm 265 W/m2
16:19 70 °F /  21.1 °C 59.7 °F /  15.4 °C 29.91in /  1012.8hPa NW 0.9mph /  1.4km/h 5mph /  8km/h 70% 0.00in /  0mm 341 W/m2
16:24 70.3 °F /  21.3 °C 59.7 °F /  15.4 °C 29.91in /  1012.8hPa NW 8.1mph /  13km/h 9mph /  14.5km/h 69% 0.00in /  0mm 392 W/m2
16:29 70.3 °F /  21.3 °C 60.1 °F /  15.6 °C 29.91in /  1012.8hPa NW 11mph /  17.7km/h 11mph /  17.7km/h 70% 0.00in /  0mm 381 W/m2
16:34 70.3 °F /  21.3 °C 60.1 °F /  15.6 °C 29.91in /  1012.8hPa NNW 4.9mph /  7.9km/h 7mph /  11.3km/h 70% 0.00in /  0mm 359 W/m2
16:39 70.7 °F /  21.5 °C 60.1 °F /  15.6 °C 29.91in /  1012.8hPa NNW 0.9mph /  1.4km/h 8mph /  12.9km/h 69% 0.00in /  0mm 663 W/m2
16:44 70.5 °F /  21.4 °C 60.3 °F /  15.7 °C 29.91in /  1012.8hPa North 2mph /  3.2km/h 10mph /  16.1km/h 70% 0.00in /  0mm 504 W/m2
16:49 70.7 °F /  21.5 °C 60.4 °F /  15.8 °C 29.91in /  1012.8hPa NW 8.1mph /  13km/h 10mph /  16.1km/h 70% 0.00in /  0mm 520 W/m2
16:54 70.5 °F /  21.4 °C 59.9 °F /  15.5 °C 29.91in /  1012.8hPa North 2.9mph /  4.7km/h 10mph /  16.1km/h 69% 0.00in /  0mm 446 W/m2
16:59 70.7 °F /  21.5 °C 60.4 °F /  15.8 °C 29.91in /  1012.8hPa North 4.9mph /  7.9km/h 10mph /  16.1km/h 70% 0.00in /  0mm 722 W/m2
17:04 71.4 °F /  21.9 °C 60.8 °F /  16 °C 29.91in /  1012.8hPa North 11mph /  17.7km/h 11mph /  17.7km/h 69% 0.00in /  0mm 427 W/m2
17:09 71.4 °F /  21.9 °C 60.8 °F /  16 °C 29.91in /  1012.8hPa WNW 6mph /  9.7km/h 8mph /  12.9km/h 69% 0.00in /  0mm 675 W/m2
17:14 72 °F /  22.2 °C 60.8 °F /  16 °C 29.91in /  1012.8hPa NNE 4.9mph /  7.9km/h 6mph /  9.7km/h 68% 0.00in /  0mm 636 W/m2
17:19 72.7 °F /  22.6 °C 61.2 °F /  16.2 °C 29.91in /  1012.8hPa Calm   5mph /  8km/h 67% 0.00in /  0mm 578 W/m2
17:24 72.7 °F /  22.6 °C 60.6 °F /  15.9 °C 29.91in /  1012.8hPa North 2.9mph /  4.7km/h 7mph /  11.3km/h 66% 0.00in /  0mm 422 W/m2
17:29 72 °F /  22.2 °C 60.4 °F /  15.8 °C 29.91in /  1012.8hPa WNW 4.9mph /  7.9km/h 8mph /  12.9km/h 67% 0.00in /  0mm 387 W/m2
17:34 71.8 °F /  22.1 °C 60.6 °F /  15.9 °C 29.91in /  1012.8hPa NW 2.9mph /  4.7km/h 4mph /  6.4km/h 68% 0.00in /  0mm 218 W/m2
17:39 71.6 °F /  22 °C 60.4 °F /  15.8 °C 29.91in /  1012.8hPa NNW 2.9mph /  4.7km/h 6mph /  9.7km/h 68% 0.00in /  0mm 190 W/m2
17:44 70.7 °F /  21.5 °C 59.5 °F /  15.3 °C 29.91in /  1012.8hPa North 4mph /  6.4km/h 12mph /  19.3km/h 68% 0.00in /  0mm 165 W/m2
17:49 70.2 °F /  21.2 °C 59.5 °F /  15.3 °C 29.91in /  1012.8hPa NNE 2mph /  3.2km/h 9mph /  14.5km/h 69% 0.00in /  0mm 171 W/m2
17:54 70.2 °F /  21.2 °C 59.5 °F /  15.3 °C 29.91in /  1012.8hPa North 6.9mph /  11.1km/h 9mph /  14.5km/h 69% 0.00in /  0mm 149 W/m2
17:59 69.4 °F /  20.8 °C 59.5 °F /  15.3 °C 29.91in /  1012.8hPa North 6.9mph /  11.1km/h 13mph /  20.9km/h 71% 0.00in /  0mm 97 W/m2
18:04 68.9 °F /  20.5 °C 59.5 °F /  15.3 °C 29.91in /  1012.8hPa NNE 6.9mph /  11.1km/h 9mph /  14.5km/h 72% 0.00in /  0mm 105 W/m2
18:09 68.7 °F /  20.4 °C 59.4 °F /  15.2 °C 29.91in /  1012.8hPa NNE 4.9mph /  7.9km/h 10mph /  16.1km/h 72% 0.00in /  0mm 107 W/m2
18:14 68.5 °F /  20.3 °C 59.5 °F /  15.3 °C 29.91in /  1012.8hPa NW 2.9mph /  4.7km/h 9mph /  14.5km/h 73% 0.00in /  0mm 111 W/m2
18:19 68.5 °F /  20.3 °C 59.5 °F /  15.3 °C 29.91in /  1012.8hPa NE 8.1mph /  13km/h 8mph /  12.9km/h 73% 0.00in /  0mm 130 W/m2
18:24 68.5 °F /  20.3 °C 59.5 °F /  15.3 °C 29.91in /  1012.8hPa North 4mph /  6.4km/h 8mph /  12.9km/h 73% 0.00in /  0mm 183 W/m2
18:29 68.5 °F /  20.3 °C 59.5 °F /  15.3 °C 29.91in /  1012.8hPa NNE 2mph /  3.2km/h 5mph /  8km/h 73% 0.00in /  0mm 97 W/m2
18:34 68.5 °F /  20.3 °C 59.5 °F /  15.3 °C 29.91in /  1012.8hPa NNW 2mph /  3.2km/h 5mph /  8km/h 73% 0.00in /  0mm 104 W/m2
18:39 68.5 °F /  20.3 °C 59.5 °F /  15.3 °C 29.91in /  1012.8hPa Calm   5mph /  8km/h 73% 0.00in /  0mm 70 W/m2
18:44 68.4 °F /  20.2 °C 59.4 °F /  15.2 °C 29.91in /  1012.8hPa North 0.9mph /  1.4km/h 5mph /  8km/h 73% 0.00in /  0mm 77 W/m2
18:49 68.2 °F /  20.1 °C 59.2 °F /  15.1 °C 29.91in /  1012.8hPa Calm   1mph /  1.6km/h 73% 0.00in /  0mm 69 W/m2
18:54 68.4 °F /  20.2 °C 59.4 °F /  15.2 °C 29.91in /  1012.8hPa NNW 5mph /  8km/h 5mph /  8km/h 73% 0.00in /  0mm 72 W/m2
18:59 68.4 °F /  20.2 °C 59 °F /  15 °C 29.91in /  1012.8hPa NNW 0.9mph /  1.4km/h 3mph /  4.8km/h 72% 0.00in /  0mm 63 W/m2
19:04 68 °F /  20 °C 58.6 °F /  14.8 °C 29.91in /  1012.8hPa North 8mph /  12.9km/h 8mph /  12.9km/h 72% 0.00in /  0mm 76 W/m2
19:09 67.6 °F /  19.8 °C 58.6 °F /  14.8 °C 29.91in /  1012.8hPa North 4mph /  6.4km/h 4mph /  6.4km/h 73% 0.00in /  0mm 63 W/m2
19:14 67.6 °F /  19.8 °C 58.6 °F /  14.8 °C 29.91in /  1012.8hPa NNE 4mph /  6.4km/h 6mph /  9.7km/h 73% 0.00in /  0mm 58 W/m2
19:19 67.3 °F /  19.6 °C 58.3 °F /  14.6 °C 29.92in /  1013.1hPa NNW 2.9mph /  4.7km/h 3mph /  4.8km/h 73% 0.00in /  0mm 49 W/m2
19:24 67.5 °F /  19.7 °C 58.5 °F /  14.7 °C 29.92in /  1013.1hPa North 4mph /  6.4km/h 6mph /  9.7km/h 73% 0.00in /  0mm 63 W/m2
19:29 67.3 °F /  19.6 °C 58.3 °F /  14.6 °C 29.92in /  1013.1hPa Calm   3mph /  4.8km/h 73% 0.00in /  0mm 51 W/m2
19:34 67.1 °F /  19.5 °C 58.1 °F /  14.5 °C 29.92in /  1013.1hPa North 0.9mph /  1.4km/h 3mph /  4.8km/h 73% 0.00in /  0mm 51 W/m2
19:39 67.1 °F /  19.5 °C 58.1 °F /  14.5 °C 29.92in /  1013.1hPa North 4.9mph /  7.9km/h 5mph /  8km/h 73% 0.00in /  0mm 53 W/m2
19:44 66.9 °F /  19.4 °C 58.3 °F /  14.6 °C 29.93in /  1013.4hPa Calm   9mph /  14.5km/h 74% 0.00in /  0mm 49 W/m2
19:49 67.1 °F /  19.5 °C 58.5 °F /  14.7 °C 29.93in /  1013.4hPa NNE 2mph /  3.2km/h 4mph /  6.4km/h 74% 0.00in /  0mm 53 W/m2
19:53 67.1 °F /  19.5 °C 58.5 °F /  14.7 °C 29.93in /  1013.4hPa NNE 0.9mph /  1.4km/h 3mph /  4.8km/h 74% 0.00in /  0mm 56 W/m2
19:59 66.7 °F /  19.3 °C 58.1 °F /  14.5 °C 29.93in /  1013.4hPa NW 2mph /  3.2km/h 4mph /  6.4km/h 74% 0.00in /  0mm 49 W/m2
20:04 66.7 °F /  19.3 °C 58.1 °F /  14.5 °C 29.93in /  1013.4hPa NNW 2.9mph /  4.7km/h 5mph /  8km/h 74% 0.00in /  0mm 37 W/m2
20:09 66.7 °F /  19.3 °C 58.1 °F /  14.5 °C 29.93in /  1013.4hPa Calm   2mph /  3.2km/h 74% 0.00in /  0mm 37 W/m2
20:14 66.6 °F /  19.2 °C 58.1 °F /  14.5 °C 29.93in /  1013.4hPa NNW 2mph /  3.2km/h 3mph /  4.8km/h 74% 0.00in /  0mm 35 W/m2
20:19 66.6 °F /  19.2 °C 58.1 °F /  14.5 °C 29.93in /  1013.4hPa Calm   3mph /  4.8km/h 74% 0.00in /  0mm 28 W/m2
20:24 66.6 °F /  19.2 °C 58.1 °F /  14.5 °C 29.93in /  1013.4hPa NNW 2mph /  3.2km/h 3mph /  4.8km/h 74% 0.00in /  0mm 25 W/m2
20:29 66.7 °F /  19.3 °C 58.1 °F /  14.5 °C 29.93in /  1013.4hPa NNW 2mph /  3.2km/h 2mph /  3.2km/h 74% 0.00in /  0mm 26 W/m2
20:34 66.7 °F /  19.3 °C 58.1 °F /  14.5 °C 29.93in /  1013.4hPa NNW 0.9mph /  1.4km/h 4mph /  6.4km/h 74% 0.00in /  0mm 25 W/m2
20:39 66.6 °F /  19.2 °C 58.1 °F /  14.5 °C 29.93in /  1013.4hPa NNW 5mph /  8km/h 5mph /  8km/h 74% 0.00in /  0mm 25 W/m2
20:44 66.6 °F /  19.2 °C 58.1 °F /  14.5 °C 29.93in /  1013.4hPa NNW 0.9mph /  1.4km/h 4mph /  6.4km/h 74% 0.00in /  0mm 21 W/m2
20:49 66.4 °F /  19.1 °C 57.9 °F /  14.4 °C 29.93in /  1013.4hPa NNW 6mph /  9.7km/h 6mph /  9.7km/h 74% 0.00in /  0mm 16 W/m2
20:54 66.2 °F /  19 °C 57.7 °F /  14.3 °C 29.93in /  1013.4hPa North 2mph /  3.2km/h 7mph /  11.3km/h 74% 0.00in /  0mm 16 W/m2
20:59 66.2 °F /  19 °C 58.1 °F /  14.5 °C 29.93in /  1013.4hPa North 2.9mph /  4.7km/h 4mph /  6.4km/h 75% 0.00in /  0mm 12 W/m2
21:04 66.6 °F /  19.2 °C 58.5 °F /  14.7 °C 29.93in /  1013.4hPa Calm   2mph /  3.2km/h 75% 0.00in /  0mm 11 W/m2
21:09 66.6 °F /  19.2 °C 58.5 °F /  14.7 °C 29.93in /  1013.4hPa Calm   1mph /  1.6km/h 75% 0.00in /  0mm 7 W/m2
21:14 66.4 °F /  19.1 °C 58.3 °F /  14.6 °C 29.93in /  1013.4hPa North 2mph /  3.2km/h 2mph /  3.2km/h 75% 0.00in /  0mm 5 W/m2
21:19 66 °F /  18.9 °C 57.9 °F /  14.4 °C 29.93in /  1013.4hPa Calm   3mph /  4.8km/h 75% 0.00in /  0mm 0 W/m2
21:24 65.8 °F /  18.8 °C 57.7 °F /  14.3 °C 29.93in /  1013.4hPa North 2.9mph /  4.7km/h 4mph /  6.4km/h 75% 0.00in /  0mm 0 W/m2
21:29 65.3 °F /  18.5 °C 57.6 °F /  14.2 °C 29.94in /  1013.8hPa North 2.9mph /  4.7km/h 7mph /  11.3km/h 76% 0.00in /  0mm 0 W/m2
21:34 65.3 °F /  18.5 °C 57.6 °F /  14.2 °C 29.94in /  1013.8hPa NE 2.9mph /  4.7km/h 5mph /  8km/h 76% 0.00in /  0mm 0 W/m2
21:39 65.1 °F /  18.4 °C 57.7 °F /  14.3 °C 29.94in /  1013.8hPa NE 0.9mph /  1.4km/h 3mph /  4.8km/h 77% 0.00in /  0mm 0 W/m2
21:44 64.9 °F /  18.3 °C 57.6 °F /  14.2 °C 29.94in /  1013.8hPa Calm   10mph /  16.1km/h 77% 0.00in /  0mm 0 W/m2
21:49 64.4 °F /  18 °C 57.4 °F /  14.1 °C 29.94in /  1013.8hPa North 4.9mph /  7.9km/h 6mph /  9.7km/h 78% 0.00in /  0mm 0 W/m2
21:54 64.2 °F /  17.9 °C 57.2 °F /  14 °C 29.95in /  1014.1hPa NNE 0.9mph /  1.4km/h 4mph /  6.4km/h 78% 0.00in /  0mm 0 W/m2
21:59 64 °F /  17.8 °C 57 °F /  13.9 °C 29.95in /  1014.1hPa NNW 6mph /  9.7km/h 7mph /  11.3km/h 78% 0.00in /  0mm 0 W/m2
22:04 64 °F /  17.8 °C 57 °F /  13.9 °C 29.95in /  1014.1hPa NNW 2.9mph /  4.7km/h 5mph /  8km/h 78% 0.00in /  0mm 0 W/m2
22:09 64 °F /  17.8 °C 57 °F /  13.9 °C 29.95in /  1014.1hPa NNW 2mph /  3.2km/h 4mph /  6.4km/h 78% 0.00in /  0mm 0 W/m2
22:14 63.9 °F /  17.7 °C 56.8 °F /  13.8 °C 29.95in /  1014.1hPa NNW 2mph /  3.2km/h 6mph /  9.7km/h 78% 0.00in /  0mm 0 W/m2
22:19 63.9 °F /  17.7 °C 57.2 °F /  14 °C 29.95in /  1014.1hPa Calm   2mph /  3.2km/h 79% 0.00in /  0mm 0 W/m2
22:24 63.9 °F /  17.7 °C 57.2 °F /  14 °C 29.95in /  1014.1hPa NNW 0.9mph /  1.4km/h 3mph /  4.8km/h 79% 0.00in /  0mm 0 W/m2
22:29 63.9 °F /  17.7 °C 57.2 °F /  14 °C 29.95in /  1014.1hPa Calm   1mph /  1.6km/h 79% 0.00in /  0mm 0 W/m2
22:34 63.9 °F /  17.7 °C 57.2 °F /  14 °C 29.96in /  1014.4hPa NNW 0.9mph /  1.4km/h 1mph /  1.6km/h 79% 0.00in /  0mm 0 W/m2
22:39 63.9 °F /  17.7 °C 57.2 °F /  14 °C 29.96in /  1014.4hPa Calm   1mph /  1.6km/h 79% 0.00in /  0mm 0 W/m2
22:44 63.9 °F /  17.7 °C 56.8 °F /  13.8 °C 29.96in /  1014.4hPa NNW 0.9mph /  1.4km/h 4mph /  6.4km/h 78% 0.00in /  0mm 0 W/m2
22:49 64 °F /  17.8 °C 57 °F /  13.9 °C 29.96in /  1014.4hPa NNW 0.9mph /  1.4km/h 5mph /  8km/h 78% 0.00in /  0mm 0 W/m2
22:54 64 °F /  17.8 °C 57 °F /  13.9 °C 29.96in /  1014.4hPa Calm   1mph /  1.6km/h 78% 0.00in /  0mm 0 W/m2
22:59 64 °F /  17.8 °C 57 °F /  13.9 °C 29.96in /  1014.4hPa Calm   1mph /  1.6km/h 78% 0.00in /  0mm 0 W/m2
23:04 64 °F /  17.8 °C 57 °F /  13.9 °C 29.96in /  1014.4hPa NNW 2mph /  3.2km/h 5mph /  8km/h 78% 0.00in /  0mm 0 W/m2
23:09 64 °F /  17.8 °C 57.4 °F /  14.1 °C 29.96in /  1014.4hPa Calm   2mph /  3.2km/h 79% 0.00in /  0mm 0 W/m2
23:14 64 °F /  17.8 °C 57.4 °F /  14.1 °C 29.96in /  1014.4hPa NNW 2mph /  3.2km/h 2mph /  3.2km/h 79% 0.00in /  0mm 0 W/m2
23:19 63.7 °F /  17.6 °C 57 °F /  13.9 °C 29.96in /  1014.4hPa Calm   1mph /  1.6km/h 79% 0.00in /  0mm 0 W/m2
23:24 63.5 °F /  17.5 °C 57.2 °F /  14 °C 29.96in /  1014.4hPa Calm   2mph /  3.2km/h 80% 0.00in /  0mm 0 W/m2
23:29 63.3 °F /  17.4 °C 57 °F /  13.9 °C 29.96in /  1014.4hPa Calm     80% 0.00in /  0mm 0 W/m2
23:34 63.3 °F /  17.4 °C 57 °F /  13.9 °C 29.96in /  1014.4hPa NNW 0.9mph /  1.4km/h 2mph /  3.2km/h 80% 0.00in /  0mm 0 W/m2
23:39 63.5 °F /  17.5 °C 57.2 °F /  14 °C 29.96in /  1014.4hPa NNW 0.9mph /  1.4km/h 2mph /  3.2km/h 80% 0.00in /  0mm 0 W/m2
23:44 63.5 °F /  17.5 °C 57.2 °F /  14 °C 29.96in /  1014.4hPa Calm   4mph /  6.4km/h 80% 0.00in /  0mm 0 W/m2
23:49 63.3 °F /  17.4 °C 57 °F /  13.9 °C 29.96in /  1014.4hPa Calm   1mph /  1.6km/h 80% 0.00in /  0mm 0 W/m2
23:54 63.3 °F /  17.4 °C 57.4 °F /  14.1 °C 29.96in /  1014.4hPa NNE 2mph /  3.2km/h 2mph /  3.2km/h 81% 0.00in /  0mm 0 W/m2
23:59 63.3 °F /  17.4 °C 57.4 °F /  14.1 °C 29.96in /  1014.4hPa NNE 0.9mph /  1.4km/h 3mph /  4.8km/h 81% 0.00in /  0mm 0 W/m2
Bath Spa Weather
Compliments of Weather Underground - 2 mb